createdAt,value
2023-02-13T00:01:48.000Z,94747.34
2023-02-13T00:06:51.538Z,94751.94
2023-02-13T00:11:55.107Z,94742.81
2023-02-13T00:16:58.736Z,94765.75
2023-02-13T00:22:02.301Z,94768.75
2023-02-13T00:27:05.385Z,94757.41
2023-02-13T00:32:09.983Z,94755.72
2023-02-13T00:37:13.414Z,94759.38
2023-02-13T00:42:17.070Z,94771.09
2023-02-13T00:47:21.803Z,94769.91
2023-02-13T00:52:25.981Z,94773.84
2023-02-13T00:57:31.493Z,94772.69
2023-02-13T01:02:36.441Z,94763.66
2023-02-13T01:07:40.067Z,94769.78
2023-02-13T01:12:43.861Z,94769.00
2023-02-13T01:17:47.705Z,94765.53
2023-02-13T01:22:51.673Z,94761.75
2023-02-13T01:27:55.476Z,94756.31
2023-02-13T01:32:58.981Z,94761.28
2023-02-13T01:38:02.497Z,94752.03
2023-02-13T01:43:09.867Z,94736.41
2023-02-13T01:48:18.932Z,94750.16
2023-02-13T01:53:27.885Z,94746.97
2023-02-13T01:58:35.461Z,94756.56
2023-02-13T02:04:01.659Z,94753.03
2023-02-13T02:09:20.340Z,94699.59
2023-02-13T02:14:24.539Z,94753.81
2023-02-13T02:19:43.531Z,94759.56
2023-02-13T02:25:05.871Z,94763.50
2023-02-13T02:30:22.233Z,94757.44
2023-02-13T02:35:51.285Z,94744.22
2023-02-13T02:41:35.791Z,94759.50
2023-02-13T02:47:08.141Z,94749.94
2023-02-13T02:52:46.310Z,94752.34
2023-02-13T02:58:32.693Z,94755.34
2023-02-13T03:03:57.198Z,94739.88
2023-02-13T03:09:22.850Z,94753.91
2023-02-13T03:14:28.727Z,94754.22
2023-02-13T03:19:53.186Z,94764.44
2023-02-13T03:25:15.946Z,94754.28
2023-02-13T03:30:29.341Z,94763.03
2023-02-13T03:36:02.009Z,94767.22
2023-02-13T03:41:21.086Z,94759.91
2023-02-13T03:46:27.674Z,94788.31
2023-02-13T03:51:39.653Z,94788.13
2023-02-13T03:57:02.956Z,94775.81
2023-02-13T04:02:17.513Z,94781.19
2023-02-13T04:07:33.122Z,94800.78
2023-02-13T04:12:47.255Z,94795.19
2023-02-13T04:17:59.955Z,94789.25
2023-02-13T04:23:10.637Z,94790.31
2023-02-13T04:28:13.815Z,94785.91
2023-02-13T04:33:17.708Z,94809.06
2023-02-13T04:38:20.894Z,94791.84
2023-02-13T04:43:25.617Z,94792.94
2023-02-13T04:48:29.097Z,94797.97
2023-02-13T04:53:33.196Z,94804.47
2023-02-13T04:58:36.964Z,94807.38
2023-02-13T05:03:40.673Z,94795.91
2023-02-13T05:08:43.660Z,94797.34
2023-02-13T05:13:47.117Z,94807.91
2023-02-13T05:18:50.219Z,94815.09
2023-02-13T05:23:54.081Z,94814.59
2023-02-13T05:29:17.031Z,94825.84
2023-02-13T05:34:24.669Z,94820.69
2023-02-13T05:39:30.687Z,94824.66
2023-02-13T05:44:33.942Z,94834.63
2023-02-13T05:49:37.941Z,94846.31
2023-02-13T05:54:41.220Z,94843.72
2023-02-13T05:59:44.400Z,94850.06
2023-02-13T06:04:47.809Z,94855.88
2023-02-13T06:09:52.139Z,94854.19
2023-02-13T06:14:55.260Z,94863.69
2023-02-13T06:19:59.096Z,94879.44
2023-02-13T06:25:02.400Z,94885.41
2023-02-13T06:30:06.120Z,94880.97
2023-02-13T06:35:10.240Z,94886.88
2023-02-13T06:40:15.700Z,94883.88
2023-02-13T06:45:19.796Z,94898.69
2023-02-13T06:50:23.823Z,94885.94
2023-02-13T06:55:28.514Z,94916.91
2023-02-13T07:00:32.253Z,94916.59
2023-02-13T07:05:35.882Z,94920.88
2023-02-13T07:10:40.856Z,94920.09
2023-02-13T07:15:44.408Z,94915.59
2023-02-13T07:20:47.541Z,94912.09
2023-02-13T07:25:50.638Z,94926.69
2023-02-13T07:30:56.438Z,94924.59
2023-02-13T07:36:00.108Z,94923.34
2023-02-13T07:41:04.608Z,94919.25
2023-02-13T07:46:08.387Z,94931.00
2023-02-13T07:51:11.871Z,94937.38
2023-02-13T07:56:15.908Z,94937.88
2023-02-13T08:01:20.362Z,94886.09
2023-02-13T08:06:23.925Z,94928.19
2023-02-13T08:11:52.993Z,94934.34
2023-02-13T08:16:56.862Z,94928.81
2023-02-13T08:22:00.484Z,94920.13
2023-02-13T08:27:04.279Z,94894.34
2023-02-13T08:32:07.999Z,94943.91
2023-02-13T08:37:11.892Z,94932.47
2023-02-13T08:42:16.393Z,94946.81
2023-02-13T08:47:19.795Z,94934.81
2023-02-13T08:52:23.101Z,94945.44
2023-02-13T08:57:26.735Z,94950.88
2023-02-13T09:02:30.218Z,94938.03
2023-02-13T09:07:33.607Z,94945.78
2023-02-13T09:12:37.853Z,94954.34
2023-02-13T09:17:42.029Z,94943.66
2023-02-13T09:22:45.314Z,94951.81
2023-02-13T09:27:49.145Z,94959.22
2023-02-13T09:32:53.801Z,94961.63
2023-02-13T09:37:58.084Z,94963.34
2023-02-13T09:43:27.904Z,94968.63
2023-02-13T09:48:37.326Z,94968.81
2023-02-13T09:53:43.760Z,94963.59
2023-02-13T09:58:49.830Z,94957.59
2023-02-13T10:04:07.804Z,94968.50
2023-02-13T10:09:37.025Z,94945.53
2023-02-13T10:15:21.771Z,94951.38
2023-02-13T10:20:45.727Z,94947.75
2023-02-13T10:26:03.214Z,94946.19
2023-02-13T10:31:12.969Z,94946.00
2023-02-13T10:37:13.683Z,94942.06
2023-02-13T10:42:45.866Z,94942.03
2023-02-13T10:48:08.748Z,94937.16
2023-02-13T10:53:51.376Z,94944.38
2023-02-13T10:59:23.662Z,94941.66
2023-02-13T11:04:30.102Z,94938.72
2023-02-13T11:09:38.566Z,94938.69
2023-02-13T11:14:54.897Z,94941.84
2023-02-13T11:20:01.747Z,94946.19
2023-02-13T11:25:17.833Z,94932.06
2023-02-13T11:30:23.648Z,94926.84
2023-02-13T11:35:31.552Z,94919.28
2023-02-13T11:40:36.174Z,94910.38
2023-02-13T11:45:41.017Z,94899.19
2023-02-13T11:50:51.501Z,94903.06
2023-02-13T11:56:20.939Z,94897.56
2023-02-13T12:01:26.959Z,94895.94
2023-02-13T12:06:31.359Z,94890.59
2023-02-13T12:11:37.516Z,94889.88
2023-02-13T12:16:45.834Z,94894.72
2023-02-13T12:22:15.409Z,94887.22
2023-02-13T12:27:50.056Z,94885.53
2023-02-13T12:33:29.114Z,94885.44
2023-02-13T12:38:35.165Z,94878.66
2023-02-13T12:43:59.985Z,94876.28
2023-02-13T12:49:17.990Z,94872.75
2023-02-13T12:54:47.196Z,94878.31
2023-02-13T13:00:30.731Z,94864.00
2023-02-13T13:06:08.829Z,94867.13
2023-02-13T13:11:19.701Z,94869.22
2023-02-13T13:16:45.539Z,94870.59
2023-02-13T13:21:55.327Z,94864.69
2023-02-13T13:27:01.321Z,94866.09
2023-02-13T13:32:08.963Z,94878.06
2023-02-13T13:37:19.972Z,94864.28
2023-02-13T13:42:44.312Z,94874.03
2023-02-13T13:47:57.242Z,94881.66
2023-02-13T13:53:20.809Z,94880.88
2023-02-13T13:58:35.895Z,94885.19
2023-02-13T14:03:40.556Z,94876.81
2023-02-13T14:08:46.916Z,94879.56
2023-02-13T14:13:50.563Z,94873.13
2023-02-13T14:18:54.066Z,94874.28
2023-02-13T14:24:04.170Z,94874.00
2023-02-13T14:29:10.706Z,94880.44
2023-02-13T14:34:20.971Z,94885.06
2023-02-13T14:39:36.155Z,94887.16
2023-02-13T14:44:52.967Z,94887.94
2023-02-13T14:49:58.507Z,94896.63
2023-02-13T14:55:17.240Z,94900.19
2023-02-13T15:00:34.956Z,94889.84
2023-02-13T15:05:38.417Z,94902.38
2023-02-13T15:10:47.821Z,94900.66
2023-02-13T15:15:57.708Z,94908.00
2023-02-13T15:21:02.003Z,94910.00
2023-02-13T15:26:07.631Z,94906.91
2023-02-13T15:31:24.829Z,94912.47
2023-02-13T15:36:36.824Z,94916.91
2023-02-13T15:41:44.134Z,94914.22
2023-02-13T15:46:48.874Z,94931.03
2023-02-13T15:52:03.726Z,94935.56
2023-02-13T15:57:07.737Z,94936.53
2023-02-13T16:02:29.028Z,94937.44
2023-02-13T16:07:51.511Z,94938.25
2023-02-13T16:12:56.418Z,94953.72
2023-02-13T16:18:00.104Z,94969.88
2023-02-13T16:23:14.264Z,94962.44
2023-02-13T16:28:25.103Z,94977.78
2023-02-13T16:33:30.211Z,94984.09
2023-02-13T16:38:41.220Z,94983.66
2023-02-13T16:43:53.495Z,94993.84
2023-02-13T16:48:56.803Z,95000.53
2023-02-13T16:54:03.979Z,95011.34
2023-02-13T16:59:26.424Z,95013.34
2023-02-13T17:04:31.960Z,95016.97
2023-02-13T17:09:35.227Z,95004.75
2023-02-13T17:14:38.820Z,95014.06
2023-02-13T17:19:42.419Z,95031.25
2023-02-13T17:24:45.388Z,95036.03
2023-02-13T17:29:48.388Z,95030.72
2023-02-13T17:34:51.566Z,95041.06
2023-02-13T17:39:55.955Z,95040.34
2023-02-13T17:44:59.940Z,95034.38
2023-02-13T17:50:09.844Z,95044.72
2023-02-13T17:55:27.654Z,95051.16
2023-02-13T18:00:34.168Z,95056.19
2023-02-13T18:05:37.847Z,95065.81
2023-02-13T18:10:41.155Z,95066.25
2023-02-13T18:15:46.456Z,95070.66
2023-02-13T18:20:56.473Z,95071.50
2023-02-13T18:26:09.678Z,95075.81
2023-02-13T18:31:14.034Z,95084.63
2023-02-13T18:36:18.062Z,95079.13
2023-02-13T18:41:22.072Z,95076.53
2023-02-13T18:46:25.959Z,95085.66
2023-02-13T18:51:30.146Z,95082.66
2023-02-13T18:56:33.774Z,95076.13
2023-02-13T19:01:37.107Z,95082.72
2023-02-13T19:06:42.468Z,95090.34
2023-02-13T19:11:45.676Z,95093.94
2023-02-13T19:16:48.678Z,95089.41
2023-02-13T19:21:51.720Z,95088.50
2023-02-13T19:26:55.596Z,95103.53
2023-02-13T19:31:58.684Z,95103.81
2023-02-13T19:37:02.346Z,95102.28
2023-02-13T19:42:06.048Z,95100.72
2023-02-13T19:47:09.543Z,95105.81
2023-02-13T19:52:13.223Z,95104.13
2023-02-13T19:57:16.667Z,95113.94
2023-02-13T20:02:21.785Z,95098.81
2023-02-13T20:07:24.993Z,95113.31
2023-02-13T20:12:28.080Z,95105.81
2023-02-13T20:17:31.942Z,95124.53
2023-02-13T20:22:35.750Z,95119.22
2023-02-13T20:27:42.575Z,95122.38
2023-02-13T20:32:46.405Z,95126.72
2023-02-13T20:37:49.728Z,95124.22
2023-02-13T20:42:53.758Z,95126.81
2023-02-13T20:47:57.222Z,95116.88
2023-02-13T20:53:00.831Z,95107.84
2023-02-13T20:58:04.580Z,95114.72
2023-02-13T21:03:08.477Z,95111.53
2023-02-13T21:08:12.433Z,95124.75
2023-02-13T21:13:15.405Z,95121.09
2023-02-13T21:18:21.332Z,95116.00
2023-02-13T21:23:24.445Z,95126.06
2023-02-13T21:28:28.475Z,95130.00
2023-02-13T21:33:31.423Z,95120.03
2023-02-13T21:38:36.150Z,95110.31
2023-02-13T21:43:42.322Z,95107.75
2023-02-13T21:48:46.622Z,95106.00
2023-02-13T21:53:52.137Z,95109.19
2023-02-13T21:58:56.962Z,95107.41
2023-02-13T22:04:03.519Z,95109.69
2023-02-13T22:09:10.277Z,95103.59
2023-02-13T22:14:17.364Z,95101.53
2023-02-13T22:19:21.782Z,95116.03
2023-02-13T22:24:24.878Z,95113.41
2023-02-13T22:29:28.318Z,95114.25
2023-02-13T22:34:31.819Z,95116.19
2023-02-13T22:39:35.025Z,95115.72
2023-02-13T22:44:38.571Z,95114.22
2023-02-13T22:49:41.620Z,95121.47
2023-02-13T22:54:45.001Z,95112.84
2023-02-13T22:59:47.913Z,95106.31
2023-02-13T23:04:51.409Z,95114.16
2023-02-13T23:09:55.295Z,95121.13
2023-02-13T23:14:59.117Z,95115.53
2023-02-13T23:20:02.485Z,95113.19
2023-02-13T23:25:06.300Z,95123.75
2023-02-13T23:30:10.734Z,95125.06
2023-02-13T23:35:13.760Z,95124.03
2023-02-13T23:40:18.396Z,95123.88
2023-02-13T23:45:21.421Z,95126.09
2023-02-13T23:50:25.355Z,95129.53
2023-02-13T23:55:29.006Z,95129.28
